Chicago, Illinois
Current Conditions -  °F | °C
As of 12:53 AM on Friday 28 Nov 2014 (Local Time) from KMDW Reporting Station
Broken Clouds Broken Clouds  
Wind Chill: 21°   Ceiling: 15000
Heat Index: 21°   Visibility: 10mi
Dew Point:   Wind: 0mph
Humidity: 60%   Direction: NA
Pressure: 30.36"   Gusts: NA
Location:  41.88°N, 87.63°W
Report Text: KMDW 280653Z 00000KT 10SM BKN150 M06/M13 A3036 RMK AO2 SLP297 T10611128 $
Loading
Personal Weather Stations






























Interactive Weather Map New forecast layout! Learn more

10-Day Weather Forecast

Advertisements
Track Severe Weather on mobile